sensor_id;sensor_type;location;lat;lon;timestamp;P1;P2;P0
30342;PMS5003;17145;49.902;8.680;2023-04-01T00:00:46;11;8;
30342;PMS5003;17145;49.902;8.680;2023-04-01T00:03:14;12;12;
30342;PMS5003;17145;49.902;8.680;2023-04-01T00:05:41;13;10;
30342;PMS5003;17145;49.902;8.680;2023-04-01T00:08:09;9;8;
30342;PMS5003;17145;49.902;8.680;2023-04-01T00:10:37;7;7;
30342;PMS5003;17145;49.902;8.680;2023-04-01T00:13:05;9;8;
30342;PMS5003;17145;49.902;8.680;2023-04-01T00:15:33;9;8;
30342;PMS5003;17145;49.902;8.680;2023-04-01T00:18:02;9;9;
30342;PMS5003;17145;49.902;8.680;2023-04-01T00:20:30;13;8;
30342;PMS5003;17145;49.902;8.680;2023-04-01T00:22:57;8;8;
30342;PMS5003;17145;49.902;8.680;2023-04-01T00:25:25;8;8;
30342;PMS5003;17145;49.902;8.680;2023-04-01T00:27:53;9;8;
30342;PMS5003;17145;49.902;8.680;2023-04-01T00:30:20;9;7;
30342;PMS5003;17145;49.902;8.680;2023-04-01T00:32:51;8;8;
30342;PMS5003;17145;49.902;8.680;2023-04-01T00:35:18;8;8;
30342;PMS5003;17145;49.902;8.680;2023-04-01T00:37:46;9;9;
30342;PMS5003;17145;49.902;8.680;2023-04-01T00:42:49;9;8;
30342;PMS5003;17145;49.902;8.680;2023-04-01T00:45:27;8;8;
30342;PMS5003;17145;49.902;8.680;2023-04-01T00:47:59;8;7;
30342;PMS5003;17145;49.902;8.680;2023-04-01T00:50:30;8;7;
30342;PMS5003;17145;49.902;8.680;2023-04-01T00:53:00;10;9;
30342;PMS5003;17145;49.902;8.680;2023-04-01T00:55:29;9;9;
30342;PMS5003;17145;49.902;8.680;2023-04-01T00:58:01;8;8;
30342;PMS5003;17145;49.902;8.680;2023-04-01T01:00:31;6;6;
30342;PMS5003;17145;49.902;8.680;2023-04-01T01:02:59;7;7;
30342;PMS5003;17145;49.902;8.680;2023-04-01T01:05:29;8;8;
30342;PMS5003;17145;49.902;8.680;2023-04-01T01:08:07;7;7;
30342;PMS5003;17145;49.902;8.680;2023-04-01T01:10:42;7;7;
30342;PMS5003;17145;49.902;8.680;2023-04-01T01:13:16;16;13;
30342;PMS5003;17145;49.902;8.680;2023-04-01T01:15:49;9;9;
30342;PMS5003;17145;49.902;8.680;2023-04-01T01:18:24;7;7;
30342;PMS5003;17145;49.902;8.680;2023-04-01T01:21:08;8;8;
30342;PMS5003;17145;49.902;8.680;2023-04-01T01:24:01;10;10;
30342;PMS5003;17145;49.902;8.680;2023-04-01T01:26:41;6;6;
30342;PMS5003;17145;49.902;8.680;2023-04-01T01:32:03;9;9;
30342;PMS5003;17145;49.902;8.680;2023-04-01T01:34:36;8;8;
30342;PMS5003;17145;49.902;8.680;2023-04-01T01:37:13;8;7;
30342;PMS5003;17145;49.902;8.680;2023-04-01T01:39:45;10;10;
30342;PMS5003;17145;49.902;8.680;2023-04-01T01:42:17;8;8;
30342;PMS5003;17145;49.902;8.680;2023-04-01T01:44:47;11;11;
30342;PMS5003;17145;49.902;8.680;2023-04-01T01:47:17;9;9;
30342;PMS5003;17145;49.902;8.680;2023-04-01T01:49:47;8;7;
30342;PMS5003;17145;49.902;8.680;2023-04-01T01:52:17;8;8;
30342;PMS5003;17145;49.902;8.680;2023-04-01T01:54:47;9;9;
30342;PMS5003;17145;49.902;8.680;2023-04-01T01:57:15;9;8;
30342;PMS5003;17145;49.902;8.680;2023-04-01T01:59:44;10;9;
30342;PMS5003;17145;49.902;8.680;2023-04-01T02:02:14;8;8;
30342;PMS5003;17145;49.902;8.680;2023-04-01T02:04:44;9;9;
30342;PMS5003;17145;49.902;8.680;2023-04-01T02:07:15;7;7;
30342;PMS5003;17145;49.902;8.680;2023-04-01T02:09:47;9;8;
30342;PMS5003;17145;49.902;8.680;2023-04-01T02:12:16;7;7;
30342;PMS5003;17145;49.902;8.680;2023-04-01T02:14:50;9;9;
30342;PMS5003;17145;49.902;8.680;2023-04-01T02:17:22;11;10;
30342;PMS5003;17145;49.902;8.680;2023-04-01T02:19:54;8;8;
30342;PMS5003;17145;49.902;8.680;2023-04-01T02:22:26;7;7;
30342;PMS5003;17145;49.902;8.680;2023-04-01T02:24:58;12;7;
30342;PMS5003;17145;49.902;8.680;2023-04-01T02:27:27;11;11;
30342;PMS5003;17145;49.902;8.680;2023-04-01T02:29:57;7;7;
30342;PMS5003;17145;49.902;8.680;2023-04-01T02:32:25;10;9;
30342;PMS5003;17145;49.902;8.680;2023-04-01T02:34:54;8;8;
30342;PMS5003;17145;49.902;8.680;2023-04-01T02:37:23;8;8;
30342;PMS5003;17145;49.902;8.680;2023-04-01T02:39:51;9;7;
30342;PMS5003;17145;49.902;8.680;2023-04-01T02:42:18;8;8;
30342;PMS5003;17145;49.902;8.680;2023-04-01T02:44:47;10;8;
30342;PMS5003;17145;49.902;8.680;2023-04-01T02:47:15;7;6;
30342;PMS5003;17145;49.902;8.680;2023-04-01T02:49:44;5;5;
30342;PMS5003;17145;49.902;8.680;2023-04-01T02:52:12;8;8;
30342;PMS5003;17145;49.902;8.680;2023-04-01T02:54:40;5;5;
30342;PMS5003;17145;49.902;8.680;2023-04-01T02:57:08;8;8;
30342;PMS5003;17145;49.902;8.680;2023-04-01T02:59:36;6;6;
30342;PMS5003;17145;49.902;8.680;2023-04-01T03:02:04;9;8;
30342;PMS5003;17145;49.902;8.680;2023-04-01T03:04:31;29;29;
30342;PMS5003;17145;49.902;8.680;2023-04-01T03:06:59;29;29;
30342;PMS5003;17145;49.902;8.680;2023-04-01T03:09:27;19;19;
30342;PMS5003;17145;49.902;8.680;2023-04-01T03:11:54;13;13;
30342;PMS5003;17145;49.902;8.680;2023-04-01T03:14:21;18;18;
30342;PMS5003;17145;49.902;8.680;2023-04-01T03:16:49;22;21;
30342;PMS5003;17145;49.902;8.680;2023-04-01T03:19:17;15;15;
30342;PMS5003;17145;49.902;8.680;2023-04-01T03:21:46;9;9;
30342;PMS5003;17145;49.902;8.680;2023-04-01T03:24:13;6;6;
30342;PMS5003;17145;49.902;8.680;2023-04-01T03:26:41;7;7;
30342;PMS5003;17145;49.902;8.680;2023-04-01T03:29:08;7;7;
30342;PMS5003;17145;49.902;8.680;2023-04-01T03:31:35;7;7;
30342;PMS5003;17145;49.902;8.680;2023-04-01T03:34:03;8;8;
30342;PMS5003;17145;49.902;8.680;2023-04-01T03:36:31;9;8;
30342;PMS5003;17145;49.902;8.680;2023-04-01T03:38:58;7;7;
30342;PMS5003;17145;49.902;8.680;2023-04-01T03:41:25;8;7;
30342;PMS5003;17145;49.902;8.680;2023-04-01T03:43:53;7;6;
30342;PMS5003;17145;49.902;8.680;2023-04-01T03:46:20;8;8;
30342;PMS5003;17145;49.902;8.680;2023-04-01T03:48:48;6;5;
30342;PMS5003;17145;49.902;8.680;2023-04-01T03:51:16;7;6;
30342;PMS5003;17145;49.902;8.680;2023-04-01T03:53:44;6;6;
30342;PMS5003;17145;49.902;8.680;2023-04-01T03:56:11;8;7;
30342;PMS5003;17145;49.902;8.680;2023-04-01T03:58:39;5;5;
30342;PMS5003;17145;49.902;8.680;2023-04-01T04:03:41;8;7;
30342;PMS5003;17145;49.902;8.680;2023-04-01T04:06:10;8;8;
30342;PMS5003;17145;49.902;8.680;2023-04-01T04:08:38;7;7;
30342;PMS5003;17145;49.902;8.680;2023-04-01T04:11:06;6;6;
30342;PMS5003;17145;49.902;8.680;2023-04-01T04:13:34;7;7;
30342;PMS5003;17145;49.902;8.680;2023-04-01T04:16:02;7;7;
30342;PMS5003;17145;49.902;8.680;2023-04-01T04:18:31;7;7;
30342;PMS5003;17145;49.902;8.680;2023-04-01T04:20:59;8;8;
30342;PMS5003;17145;49.902;8.680;2023-04-01T04:23:26;9;8;
30342;PMS5003;17145;49.902;8.680;2023-04-01T04:25:55;7;7;
30342;PMS5003;17145;49.902;8.680;2023-04-01T04:28:24;7;7;
30342;PMS5003;17145;49.902;8.680;2023-04-01T04:30:52;6;6;
30342;PMS5003;17145;49.902;8.680;2023-04-01T04:33:22;8;8;
30342;PMS5003;17145;49.902;8.680;2023-04-01T04:35:50;5;5;
30342;PMS5003;17145;49.902;8.680;2023-04-01T04:38:21;7;7;
30342;PMS5003;17145;49.902;8.680;2023-04-01T04:40:48;8;7;
30342;PMS5003;17145;49.902;8.680;2023-04-01T04:43:17;6;6;
30342;PMS5003;17145;49.902;8.680;2023-04-01T04:45:45;6;6;
30342;PMS5003;17145;49.902;8.680;2023-04-01T04:48:14;7;7;
30342;PMS5003;17145;49.902;8.680;2023-04-01T04:50:43;8;8;
30342;PMS5003;17145;49.902;8.680;2023-04-01T04:53:12;9;8;
30342;PMS5003;17145;49.902;8.680;2023-04-01T04:55:42;8;8;
30342;PMS5003;17145;49.902;8.680;2023-04-01T04:58:11;9;9;
30342;PMS5003;17145;49.902;8.680;2023-04-01T05:00:39;8;8;
30342;PMS5003;17145;49.902;8.680;2023-04-01T05:03:07;10;10;
30342;PMS5003;17145;49.902;8.680;2023-04-01T05:05:35;7;7;
30342;PMS5003;17145;49.902;8.680;2023-04-01T05:08:03;6;6;
30342;PMS5003;17145;49.902;8.680;2023-04-01T05:10:30;9;9;
30342;PMS5003;17145;49.902;8.680;2023-04-01T05:12:58;7;7;
30342;PMS5003;17145;49.902;8.680;2023-04-01T05:15:26;9;9;
30342;PMS5003;17145;49.902;8.680;2023-04-01T05:17:53;8;8;
30342;PMS5003;17145;49.902;8.680;2023-04-01T05:20:20;9;8;
30342;PMS5003;17145;49.902;8.680;2023-04-01T05:22:48;8;8;
30342;PMS5003;17145;49.902;8.680;2023-04-01T05:25:15;16;9;
30342;PMS5003;17145;49.902;8.680;2023-04-01T05:27:43;10;9;
30342;PMS5003;17145;49.902;8.680;2023-04-01T05:30:10;10;10;
30342;PMS5003;17145;49.902;8.680;2023-04-01T05:32:38;10;10;
30342;PMS5003;17145;49.902;8.680;2023-04-01T05:35:06;11;11;
30342;PMS5003;17145;49.902;8.680;2023-04-01T05:37:34;10;10;
30342;PMS5003;17145;49.902;8.680;2023-04-01T05:40:02;7;7;
30342;PMS5003;17145;49.902;8.680;2023-04-01T05:42:30;7;7;
30342;PMS5003;17145;49.902;8.680;2023-04-01T05:44:57;6;6;
30342;PMS5003;17145;49.902;8.680;2023-04-01T05:47:25;8;8;
30342;PMS5003;17145;49.902;8.680;2023-04-01T05:49:53;5;5;
30342;PMS5003;17145;49.902;8.680;2023-04-01T05:52:20;7;6;
30342;PMS5003;17145;49.902;8.680;2023-04-01T05:54:48;5;5;
30342;PMS5003;17145;49.902;8.680;2023-04-01T05:57:15;8;5;
30342;PMS5003;17145;49.902;8.680;2023-04-01T05:59:43;5;5;
30342;PMS5003;17145;49.902;8.680;2023-04-01T06:02:11;6;5;
30342;PMS5003;17145;49.902;8.680;2023-04-01T06:04:39;5;5;
30342;PMS5003;17145;49.902;8.680;2023-04-01T06:07:10;6;5;
30342;PMS5003;17145;49.902;8.680;2023-04-01T06:09:39;5;5;
30342;PMS5003;17145;49.902;8.680;2023-04-01T06:12:13;4;4;
30342;PMS5003;17145;49.902;8.680;2023-04-01T06:14:52;7;6;
30342;PMS5003;17145;49.902;8.680;2023-04-01T06:17:32;6;5;
30342;PMS5003;17145;49.902;8.680;2023-04-01T06:20:11;7;6;
30342;PMS5003;17145;49.902;8.680;2023-04-01T06:22:52;6;6;
30342;PMS5003;17145;49.902;8.680;2023-04-01T06:25:43;6;6;
30342;PMS5003;17145;49.902;8.680;2023-04-01T06:28:29;7;6;
30342;PMS5003;17145;49.902;8.680;2023-04-01T06:31:10;5;5;
30342;PMS5003;17145;49.902;8.680;2023-04-01T06:33:51;8;8;
30342;PMS5003;17145;49.902;8.680;2023-04-01T06:36:33;7;6;
30342;PMS5003;17145;49.902;8.680;2023-04-01T06:39:15;6;6;
30342;PMS5003;17145;49.902;8.680;2023-04-01T06:42:00;5;5;
30342;PMS5003;17145;49.902;8.680;2023-04-01T06:44:38;6;6;
30342;PMS5003;17145;49.902;8.680;2023-04-01T06:47:21;6;6;
30342;PMS5003;17145;49.902;8.680;2023-04-01T06:50:00;6;6;
30342;PMS5003;17145;49.902;8.680;2023-04-01T06:52:37;7;6;
30342;PMS5003;17145;49.902;8.680;2023-04-01T06:55:18;5;5;
30342;PMS5003;17145;49.902;8.680;2023-04-01T06:57:53;5;5;
30342;PMS5003;17145;49.902;8.680;2023-04-01T07:00:27;7;7;
30342;PMS5003;17145;49.902;8.680;2023-04-01T07:02:59;8;6;
30342;PMS5003;17145;49.902;8.680;2023-04-01T07:05:34;7;7;
30342;PMS5003;17145;49.902;8.680;2023-04-01T07:08:03;5;5;
30342;PMS5003;17145;49.902;8.680;2023-04-01T07:10:35;6;6;
30342;PMS5003;17145;49.902;8.680;2023-04-01T07:13:13;6;6;
30342;PMS5003;17145;49.902;8.680;2023-04-01T07:15:50;6;5;
30342;PMS5003;17145;49.902;8.680;2023-04-01T07:18:29;7;7;
30342;PMS5003;17145;49.902;8.680;2023-04-01T07:21:01;6;6;
30342;PMS5003;17145;49.902;8.680;2023-04-01T07:23:32;5;5;
30342;PMS5003;17145;49.902;8.680;2023-04-01T07:26:08;6;6;
30342;PMS5003;17145;49.902;8.680;2023-04-01T07:28:42;7;6;
30342;PMS5003;17145;49.902;8.680;2023-04-01T07:31:13;5;5;
30342;PMS5003;17145;49.902;8.680;2023-04-01T07:33:53;6;6;
30342;PMS5003;17145;49.902;8.680;2023-04-01T07:36:32;9;8;
30342;PMS5003;17145;49.902;8.680;2023-04-01T07:39:07;9;8;
30342;PMS5003;17145;49.902;8.680;2023-04-01T07:41:50;7;7;
30342;PMS5003;17145;49.902;8.680;2023-04-01T07:44:24;7;7;
30342;PMS5003;17145;49.902;8.680;2023-04-01T07:47:01;6;6;
30342;PMS5003;17145;49.902;8.680;2023-04-01T07:49:40;7;6;
30342;PMS5003;17145;49.902;8.680;2023-04-01T07:52:19;9;8;
30342;PMS5003;17145;49.902;8.680;2023-04-01T07:54:54;6;6;
30342;PMS5003;17145;49.902;8.680;2023-04-01T07:57:30;5;5;
30342;PMS5003;17145;49.902;8.680;2023-04-01T08:00:05;7;6;
30342;PMS5003;17145;49.902;8.680;2023-04-01T08:02:44;7;7;
30342;PMS5003;17145;49.902;8.680;2023-04-01T08:05:24;6;5;
30342;PMS5003;17145;49.902;8.680;2023-04-01T08:07:57;6;6;
30342;PMS5003;17145;49.902;8.680;2023-04-01T08:10:34;8;7;
30342;PMS5003;17145;49.902;8.680;2023-04-01T08:13:10;6;5;
30342;PMS5003;17145;49.902;8.680;2023-04-01T08:15:47;5;5;
30342;PMS5003;17145;49.902;8.680;2023-04-01T08:18:22;5;5;
30342;PMS5003;17145;49.902;8.680;2023-04-01T08:20:59;6;6;
30342;PMS5003;17145;49.902;8.680;2023-04-01T08:23:30;6;6;
30342;PMS5003;17145;49.902;8.680;2023-04-01T08:26:01;6;5;
30342;PMS5003;17145;49.902;8.680;2023-04-01T08:28:32;7;5;
30342;PMS5003;17145;49.902;8.680;2023-04-01T08:31:09;5;5;
30342;PMS5003;17145;49.902;8.680;2023-04-01T08:33:40;5;5;
30342;PMS5003;17145;49.902;8.680;2023-04-01T08:36:12;8;6;
30342;PMS5003;17145;49.902;8.680;2023-04-01T08:38:43;8;7;
30342;PMS5003;17145;49.902;8.680;2023-04-01T08:41:23;7;6;
30342;PMS5003;17145;49.902;8.680;2023-04-01T08:44:04;4;4;
30342;PMS5003;17145;49.902;8.680;2023-04-01T08:46:51;6;5;
30342;PMS5003;17145;49.902;8.680;2023-04-01T08:49:33;7;6;
30342;PMS5003;17145;49.902;8.680;2023-04-01T08:52:19;6;6;
30342;PMS5003;17145;49.902;8.680;2023-04-01T08:57:43;6;5;
30342;PMS5003;17145;49.902;8.680;2023-04-01T09:00:21;4;4;
30342;PMS5003;17145;49.902;8.680;2023-04-01T09:03:02;5;5;
30342;PMS5003;17145;49.902;8.680;2023-04-01T09:05:42;5;5;
30342;PMS5003;17145;49.902;8.680;2023-04-01T09:08:27;4;4;
30342;PMS5003;17145;49.902;8.680;2023-04-01T09:11:05;4;4;
30342;PMS5003;17145;49.902;8.680;2023-04-01T09:13:45;5;4;
30342;PMS5003;17145;49.902;8.680;2023-04-01T09:16:29;5;5;
30342;PMS5003;17145;49.902;8.680;2023-04-01T09:19:15;6;5;
30342;PMS5003;17145;49.902;8.680;2023-04-01T09:21:57;5;5;
30342;PMS5003;17145;49.902;8.680;2023-04-01T09:24:43;6;5;
30342;PMS5003;17145;49.902;8.680;2023-04-01T09:27:24;7;6;
30342;PMS5003;17145;49.902;8.680;2023-04-01T09:32:42;6;6;
30342;PMS5003;17145;49.902;8.680;2023-04-01T09:35:28;5;5;
30342;PMS5003;17145;49.902;8.680;2023-04-01T09:38:11;6;6;
30342;PMS5003;17145;49.902;8.680;2023-04-01T09:40:49;5;5;
30342;PMS5003;17145;49.902;8.680;2023-04-01T09:43:24;6;6;
30342;PMS5003;17145;49.902;8.680;2023-04-01T09:48:40;5;5;
30342;PMS5003;17145;49.902;8.680;2023-04-01T09:51:29;6;5;
30342;PMS5003;17145;49.902;8.680;2023-04-01T09:54:10;6;6;
30342;PMS5003;17145;49.902;8.680;2023-04-01T10:08:04;5;5;
30342;PMS5003;17145;49.902;8.680;2023-04-01T10:16:19;7;6;
30342;PMS5003;17145;49.902;8.680;2023-04-01T10:19:04;4;4;
30342;PMS5003;17145;49.902;8.680;2023-04-01T10:21:52;6;6;
30342;PMS5003;17145;49.902;8.680;2023-04-01T10:27:21;5;5;
30342;PMS5003;17145;49.902;8.680;2023-04-01T10:41:11;5;4;
30342;PMS5003;17145;49.902;8.680;2023-04-01T10:54:46;7;6;
30342;PMS5003;17145;49.902;8.680;2023-04-01T10:57:21;8;7;
30342;PMS5003;17145;49.902;8.680;2023-04-01T11:00:10;7;6;
30342;PMS5003;17145;49.902;8.680;2023-04-01T11:14:13;7;6;
30342;PMS5003;17145;49.902;8.680;2023-04-01T11:16:56;6;6;
30342;PMS5003;17145;49.902;8.680;2023-04-01T11:22:27;8;8;
30342;PMS5003;17145;49.902;8.680;2023-04-01T11:25:18;7;7;
30342;PMS5003;17145;49.902;8.680;2023-04-01T11:28:01;7;7;
30342;PMS5003;17145;49.902;8.680;2023-04-01T11:30:47;8;6;
30342;PMS5003;17145;49.902;8.680;2023-04-01T11:33:25;6;6;
30342;PMS5003;17145;49.902;8.680;2023-04-01T11:36:04;6;5;
30342;PMS5003;17145;49.902;8.680;2023-04-01T11:38:48;9;6;
30342;PMS5003;17145;49.902;8.680;2023-04-01T11:41:31;8;7;
30342;PMS5003;17145;49.902;8.680;2023-04-01T11:44:11;6;4;
30342;PMS5003;17145;49.902;8.680;2023-04-01T11:46:47;6;6;
30342;PMS5003;17145;49.902;8.680;2023-04-01T11:49:29;7;5;
30342;PMS5003;17145;49.902;8.680;2023-04-01T11:52:12;6;6;
30342;PMS5003;17145;49.902;8.680;2023-04-01T11:54:56;6;5;
30342;PMS5003;17145;49.902;8.680;2023-04-01T11:57:43;7;6;
30342;PMS5003;17145;49.902;8.680;2023-04-01T12:00:20;6;6;
30342;PMS5003;17145;49.902;8.680;2023-04-01T12:03:02;9;7;
30342;PMS5003;17145;49.902;8.680;2023-04-01T12:05:43;6;6;
30342;PMS5003;17145;49.902;8.680;2023-04-01T12:08:20;5;5;
30342;PMS5003;17145;49.902;8.680;2023-04-01T12:10:58;8;8;
30342;PMS5003;17145;49.902;8.680;2023-04-01T12:13:34;6;6;
30342;PMS5003;17145;49.902;8.680;2023-04-01T12:16:13;8;8;
30342;PMS5003;17145;49.902;8.680;2023-04-01T12:18:52;7;7;
30342;PMS5003;17145;49.902;8.680;2023-04-01T12:21:26;9;8;
30342;PMS5003;17145;49.902;8.680;2023-04-01T12:26:49;6;6;
30342;PMS5003;17145;49.902;8.680;2023-04-01T12:32:09;7;6;
30342;PMS5003;17145;49.902;8.680;2023-04-01T12:34:49;6;6;
30342;PMS5003;17145;49.902;8.680;2023-04-01T12:37:30;8;8;
30342;PMS5003;17145;49.902;8.680;2023-04-01T12:42:51;8;8;
30342;PMS5003;17145;49.902;8.680;2023-04-01T12:45:31;8;8;
30342;PMS5003;17145;49.902;8.680;2023-04-01T12:48:03;7;5;
30342;PMS5003;17145;49.902;8.680;2023-04-01T12:50:42;10;7;
30342;PMS5003;17145;49.902;8.680;2023-04-01T12:53:27;8;8;
30342;PMS5003;17145;49.902;8.680;2023-04-01T12:56:07;5;5;
30342;PMS5003;17145;49.902;8.680;2023-04-01T12:58:52;7;7;
30342;PMS5003;17145;49.902;8.680;2023-04-01T13:07:02;9;6;
30342;PMS5003;17145;49.902;8.680;2023-04-01T13:09:45;6;6;
30342;PMS5003;17145;49.902;8.680;2023-04-01T13:12:25;6;5;
30342;PMS5003;17145;49.902;8.680;2023-04-01T13:15:06;7;7;
30342;PMS5003;17145;49.902;8.680;2023-04-01T13:17:49;6;6;
30342;PMS5003;17145;49.902;8.680;2023-04-01T13:20:28;10;8;
30342;PMS5003;17145;49.902;8.680;2023-04-01T13:23:10;10;7;
30342;PMS5003;17145;49.902;8.680;2023-04-01T13:25:47;9;6;
30342;PMS5003;17145;49.902;8.680;2023-04-01T13:28:21;7;6;
30342;PMS5003;17145;49.902;8.680;2023-04-01T13:30:55;8;6;
30342;PMS5003;17145;49.902;8.680;2023-04-01T13:33:31;7;7;
30342;PMS5003;17145;49.902;8.680;2023-04-01T13:36:10;7;6;
30342;PMS5003;17145;49.902;8.680;2023-04-01T13:38:48;7;6;
30342;PMS5003;17145;49.902;8.680;2023-04-01T13:41:33;8;7;
30342;PMS5003;17145;49.902;8.680;2023-04-01T13:44:12;7;6;
30342;PMS5003;17145;49.902;8.680;2023-04-01T13:46:52;11;10;
30342;PMS5003;17145;49.902;8.680;2023-04-01T13:49:35;7;6;
30342;PMS5003;17145;49.902;8.680;2023-04-01T13:52:16;8;7;
30342;PMS5003;17145;49.902;8.680;2023-04-01T13:54:57;6;6;
30342;PMS5003;17145;49.902;8.680;2023-04-01T13:57:45;7;6;
30342;PMS5003;17145;49.902;8.680;2023-04-01T14:00:25;9;8;
30342;PMS5003;17145;49.902;8.680;2023-04-01T14:05:44;8;7;
30342;PMS5003;17145;49.902;8.680;2023-04-01T14:08:26;6;6;
30342;PMS5003;17145;49.902;8.680;2023-04-01T14:11:07;8;7;
30342;PMS5003;17145;49.902;8.680;2023-04-01T14:13:46;6;6;
30342;PMS5003;17145;49.902;8.680;2023-04-01T14:16:26;7;7;
30342;PMS5003;17145;49.902;8.680;2023-04-01T14:19:09;8;5;
30342;PMS5003;17145;49.902;8.680;2023-04-01T14:21:46;5;5;
30342;PMS5003;17145;49.902;8.680;2023-04-01T14:24:23;6;6;
30342;PMS5003;17145;49.902;8.680;2023-04-01T14:29:50;8;7;
30342;PMS5003;17145;49.902;8.680;2023-04-01T14:32:28;7;7;
30342;PMS5003;17145;49.902;8.680;2023-04-01T14:35:14;5;5;
30342;PMS5003;17145;49.902;8.680;2023-04-01T14:37:57;7;7;
30342;PMS5003;17145;49.902;8.680;2023-04-01T14:40:34;8;7;
30342;PMS5003;17145;49.902;8.680;2023-04-01T14:43:21;8;7;
30342;PMS5003;17145;49.902;8.680;2023-04-01T14:46:13;9;8;
30342;PMS5003;17145;49.902;8.680;2023-04-01T14:48:50;7;6;
30342;PMS5003;17145;49.902;8.680;2023-04-01T14:51:21;5;5;
30342;PMS5003;17145;49.902;8.680;2023-04-01T14:54:00;7;7;
30342;PMS5003;17145;49.902;8.680;2023-04-01T14:56:37;5;5;
30342;PMS5003;17145;49.902;8.680;2023-04-01T14:59:07;7;5;
30342;PMS5003;17145;49.902;8.680;2023-04-01T15:01:39;6;5;
30342;PMS5003;17145;49.902;8.680;2023-04-01T15:04:24;7;6;
30342;PMS5003;17145;49.902;8.680;2023-04-01T15:07:06;10;8;
30342;PMS5003;17145;49.902;8.680;2023-04-01T15:09:44;7;6;
30342;PMS5003;17145;49.902;8.680;2023-04-01T15:12:21;7;7;
30342;PMS5003;17145;49.902;8.680;2023-04-01T15:14:59;9;7;
30342;PMS5003;17145;49.902;8.680;2023-04-01T15:17:48;8;7;
30342;PMS5003;17145;49.902;8.680;2023-04-01T15:20:33;7;7;
30342;PMS5003;17145;49.902;8.680;2023-04-01T15:23:16;7;5;
30342;PMS5003;17145;49.902;8.680;2023-04-01T15:28:30;6;6;
30342;PMS5003;17145;49.902;8.680;2023-04-01T15:31:07;7;6;
30342;PMS5003;17145;49.902;8.680;2023-04-01T15:33:48;7;5;
30342;PMS5003;17145;49.902;8.680;2023-04-01T15:36:29;6;6;
30342;PMS5003;17145;49.902;8.680;2023-04-01T15:39:09;8;8;
30342;PMS5003;17145;49.902;8.680;2023-04-01T15:41:42;7;7;
30342;PMS5003;17145;49.902;8.680;2023-04-01T15:47:00;7;7;
30342;PMS5003;17145;49.902;8.680;2023-04-01T15:49:34;6;5;
30342;PMS5003;17145;49.902;8.680;2023-04-01T15:52:07;6;6;
30342;PMS5003;17145;49.902;8.680;2023-04-01T15:54:47;9;6;
30342;PMS5003;17145;49.902;8.680;2023-04-01T15:57:28;5;5;
30342;PMS5003;17145;49.902;8.680;2023-04-01T16:00:11;6;5;
30342;PMS5003;17145;49.902;8.680;2023-04-01T16:02:49;6;6;
30342;PMS5003;17145;49.902;8.680;2023-04-01T16:05:27;7;7;
30342;PMS5003;17145;49.902;8.680;2023-04-01T16:08:10;5;5;
30342;PMS5003;17145;49.902;8.680;2023-04-01T16:10:52;8;7;
30342;PMS5003;17145;49.902;8.680;2023-04-01T16:13:32;8;6;
30342;PMS5003;17145;49.902;8.680;2023-04-01T16:16:12;7;6;
30342;PMS5003;17145;49.902;8.680;2023-04-01T16:18:52;6;5;
30342;PMS5003;17145;49.902;8.680;2023-04-01T16:21:35;8;6;
30342;PMS5003;17145;49.902;8.680;2023-04-01T16:24:12;6;5;
30342;PMS5003;17145;49.902;8.680;2023-04-01T16:26:48;6;5;
30342;PMS5003;17145;49.902;8.680;2023-04-01T16:29:26;7;6;
30342;PMS5003;17145;49.902;8.680;2023-04-01T16:32:11;6;5;
30342;PMS5003;17145;49.902;8.680;2023-04-01T16:34:41;8;7;
30342;PMS5003;17145;49.902;8.680;2023-04-01T16:37:15;8;8;
30342;PMS5003;17145;49.902;8.680;2023-04-01T16:39:49;7;6;
30342;PMS5003;17145;49.902;8.680;2023-04-01T16:42:26;7;7;
30342;PMS5003;17145;49.902;8.680;2023-04-01T16:45:08;6;6;
30342;PMS5003;17145;49.902;8.680;2023-04-01T16:47:47;10;7;
30342;PMS5003;17145;49.902;8.680;2023-04-01T16:50:20;9;7;
30342;PMS5003;17145;49.902;8.680;2023-04-01T16:52:57;8;7;
30342;PMS5003;17145;49.902;8.680;2023-04-01T16:55:35;9;8;
30342;PMS5003;17145;49.902;8.680;2023-04-01T16:58:07;5;5;
30342;PMS5003;17145;49.902;8.680;2023-04-01T17:00:41;7;6;
30342;PMS5003;17145;49.902;8.680;2023-04-01T17:03:16;8;6;
30342;PMS5003;17145;49.902;8.680;2023-04-01T17:06:00;6;6;
30342;PMS5003;17145;49.902;8.680;2023-04-01T17:08:39;7;6;
30342;PMS5003;17145;49.902;8.680;2023-04-01T17:11:18;8;8;
30342;PMS5003;17145;49.902;8.680;2023-04-01T17:13:49;7;6;
30342;PMS5003;17145;49.902;8.680;2023-04-01T17:16:28;7;5;
30342;PMS5003;17145;49.902;8.680;2023-04-01T17:19:06;8;6;
30342;PMS5003;17145;49.902;8.680;2023-04-01T17:21:49;7;6;
30342;PMS5003;17145;49.902;8.680;2023-04-01T17:24:28;8;7;
30342;PMS5003;17145;49.902;8.680;2023-04-01T17:27:06;9;6;
30342;PMS5003;17145;49.902;8.680;2023-04-01T17:29:54;6;6;
30342;PMS5003;17145;49.902;8.680;2023-04-01T17:32:36;8;6;
30342;PMS5003;17145;49.902;8.680;2023-04-01T17:35:11;7;6;
30342;PMS5003;17145;49.902;8.680;2023-04-01T17:37:45;9;8;
30342;PMS5003;17145;49.902;8.680;2023-04-01T17:40:27;6;5;
30342;PMS5003;17145;49.902;8.680;2023-04-01T17:43:08;10;7;
30342;PMS5003;17145;49.902;8.680;2023-04-01T17:45:42;6;4;
30342;PMS5003;17145;49.902;8.680;2023-04-01T17:48:17;10;9;
30342;PMS5003;17145;49.902;8.680;2023-04-01T17:50:54;9;7;
30342;PMS5003;17145;49.902;8.680;2023-04-01T17:53:34;7;7;
30342;PMS5003;17145;49.902;8.680;2023-04-01T17:56:12;7;7;
30342;PMS5003;17145;49.902;8.680;2023-04-01T17:58:50;7;6;
30342;PMS5003;17145;49.902;8.680;2023-04-01T18:01:35;9;6;
30342;PMS5003;17145;49.902;8.680;2023-04-01T18:04:14;9;8;
30342;PMS5003;17145;49.902;8.680;2023-04-01T18:06:55;7;6;
30342;PMS5003;17145;49.902;8.680;2023-04-01T18:09:38;6;5;
30342;PMS5003;17145;49.902;8.680;2023-04-01T18:12:18;8;7;
30342;PMS5003;17145;49.902;8.680;2023-04-01T18:15:00;8;8;
30342;PMS5003;17145;49.902;8.680;2023-04-01T18:17:42;12;9;
30342;PMS5003;17145;49.902;8.680;2023-04-01T18:20:21;11;7;
30342;PMS5003;17145;49.902;8.680;2023-04-01T18:22:57;8;7;
30342;PMS5003;17145;49.902;8.680;2023-04-01T18:25:29;7;6;
30342;PMS5003;17145;49.902;8.680;2023-04-01T18:30:51;7;7;
30342;PMS5003;17145;49.902;8.680;2023-04-01T18:33:24;11;9;
30342;PMS5003;17145;49.902;8.680;2023-04-01T18:35:58;8;8;
30342;PMS5003;17145;49.902;8.680;2023-04-01T18:38:40;8;7;
30342;PMS5003;17145;49.902;8.680;2023-04-01T18:41:16;13;12;
30342;PMS5003;17145;49.902;8.680;2023-04-01T18:43:56;7;7;
30342;PMS5003;17145;49.902;8.680;2023-04-01T18:46:38;9;8;
30342;PMS5003;17145;49.902;8.680;2023-04-01T18:49:13;11;10;
30342;PMS5003;17145;49.902;8.680;2023-04-01T18:51:50;10;8;
30342;PMS5003;17145;49.902;8.680;2023-04-01T18:54:23;11;9;
30342;PMS5003;17145;49.902;8.680;2023-04-01T18:59:32;12;8;
30342;PMS5003;17145;49.902;8.680;2023-04-01T19:02:08;12;11;
30342;PMS5003;17145;49.902;8.680;2023-04-01T19:04:49;11;11;
30342;PMS5003;17145;49.902;8.680;2023-04-01T19:12:42;11;10;
30342;PMS5003;17145;49.902;8.680;2023-04-01T19:15:22;10;8;
30342;PMS5003;17145;49.902;8.680;2023-04-01T19:18:02;7;7;
30342;PMS5003;17145;49.902;8.680;2023-04-01T19:20:51;6;6;
30342;PMS5003;17145;49.902;8.680;2023-04-01T19:26:11;10;8;
30342;PMS5003;17145;49.902;8.680;2023-04-01T19:28:47;8;8;
30342;PMS5003;17145;49.902;8.680;2023-04-01T19:31:28;11;10;
30342;PMS5003;17145;49.902;8.680;2023-04-01T19:34:06;10;8;